Time;durP1;ratioP1;P1;durP2;ratioP2;P2;SDS_P1;SDS_P2;PMS_P1;PMS_P2;Temp;Humidity;BMP_temperature;BMP_pressure;BME280_temperature;BME280_humidity;BME280_pressure;Samples;Min_cycle;Max_cycle;Signal;HPM_P1;HPM_P2
2022/07/01 00:01:03;;;;;;;;;;;;;;;26.07;59.95;101211.22;5054627;28;20024;-85
2022/07/01 00:03:48;;;;;;;4.40;3.13;;;;;;;25.95;60.55;101200.56;5054369;28;19915;-85
2022/07/01 00:06:14;;;;;;;5.00;2.90;;;;;;;26.02;59.76;101215.72;5051696;28;20029;-85
2022/07/01 00:08:39;;;;;;;;;;;;;;;26.08;60.04;101212.16;5054613;28;20087;-85
2022/07/01 00:11:05;;;;;;;4.10;2.95;;;;;;;25.85;59.53;101186.28;5054225;28;20006;-86
2022/07/01 00:13:30;;;;;;;;;;;;;;;26.05;60.03;101214.81;5036696;28;20356;-86
2022/07/01 00:15:56;;;;;;;4.95;3.10;;;;;;;25.92;60.03;101189.88;5036482;28;20357;-86
2022/07/01 00:18:23;;;;;;;;;;;;;;;26.07;60.17;101218.38;5049386;28;20100;-86
2022/07/01 00:20:52;;;;;;;7.60;2.92;;;;;;;25.91;59.44;101189.00;5020188;28;19908;-88
2022/07/01 00:23:19;;;;;;;6.55;3.03;;;;;;;25.99;59.76;101202.31;5035288;28;20017;-88
2022/07/01 00:25:44;;;;;;;3.25;2.72;;;;;;;25.89;60.27;101185.41;5015130;28;20033;-87
2022/07/01 00:28:10;;;;;;;;;;;;;;;26.04;60.07;101194.31;5031738;28;20090;-86
2022/07/01 00:30:36;;;;;;;4.53;3.00;;;;;;;25.86;60.25;101180.03;5036049;28;19909;-87
2022/07/01 00:33:02;;;;;;;4.78;3.10;;;;;;;25.91;60.19;101183.63;5017760;28;20030;-86
2022/07/01 00:35:28;;;;;;;;;;;;;;;26.03;59.98;101184.47;5019846;28;20507;-87
2022/07/01 00:37:53;;;;;;;3.53;3.17;;;;;;;25.59;59.96;101124.84;5043362;28;20473;-86
2022/07/01 00:40:19;;;;;;;;;;;;;;;25.99;60.00;101186.28;5036113;28;20031;-87
2022/07/01 00:42:52;;;;;;;3.47;2.85;;;;;;;25.58;60.03;101121.25;5053197;28;19920;-87
2022/07/01 00:45:17;;;;;;;5.20;3.10;;;;;;;25.71;60.09;101127.44;5040003;28;20028;-87
2022/07/01 00:47:43;;;;;;;;;;;;;;;25.98;59.91;101166.66;5035937;28;20408;-87
2022/07/01 00:50:11;;;;;;;4.18;2.60;;;;;;;25.54;60.13;101094.53;5020546;28;20383;-87
2022/07/01 00:52:39;;;;;;;9.27;3.10;;;;;;;25.57;59.97;101099.88;5047717;28;20017;-88
2022/07/01 00:55:07;;;;;;;3.20;2.90;;;;;;;25.79;60.02;101149.72;5035562;28;20024;-87
2022/07/01 00:57:34;;;;;;;5.32;2.97;;;;;;;25.67;60.04;101130.16;5016262;28;20183;-87
2022/07/01 01:00:02;;;;;;;3.28;2.85;;;;;;;25.90;59.65;101168.47;5053394;28;20098;-87
2022/07/01 01:02:28;;;;;;;5.53;3.17;;;;;;;25.53;60.13;101101.66;5053184;28;20104;-87
2022/07/01 01:04:53;;;;;;;;;;;;;;;25.94;59.95;101166.66;5035023;28;20100;-87
2022/07/01 01:07:19;;;;;;;4.40;3.08;;;;;;;25.92;59.92;101164.00;5021653;28;19959;-86
2022/07/01 01:09:44;;;;;;;;;;;;;;;25.92;59.91;101163.09;5036162;28;20565;-87
2022/07/01 01:12:11;;;;;;;4.00;3.30;;;;;;;25.89;60.02;101174.72;5035190;28;20433;-87
2022/07/01 01:14:50;;;;;;;3.30;2.72;;;;;;;25.67;60.07;101135.50;5043319;28;20021;-87
2022/07/01 01:17:17;;;;;;;4.13;2.97;;;;;;;25.38;59.60;101094.56;5019158;28;20079;-87
2022/07/01 01:19:43;;;;;;;4.53;2.63;;;;;;;25.84;59.63;101180.94;5035530;28;20021;-88
2022/07/01 01:22:10;;;;;;;5.75;2.90;;;;;;;25.58;59.84;101139.97;5017428;28;20025;-86
2022/07/01 01:24:36;;;;;;;4.43;2.83;;;;;;;25.50;59.50;101130.19;5027277;28;20028;-86
2022/07/01 01:27:06;;;;;;;3.95;3.00;;;;;;;25.77;59.84;101174.72;5029803;28;20032;-85
2022/07/01 01:29:32;;;;;;;3.47;2.83;;;;;;;25.44;59.54;101117.69;5028348;28;20029;-86
2022/07/01 01:31:58;;;;;;;3.83;2.80;;;;;;;25.63;59.99;101149.75;5028331;28;20043;-87
2022/07/01 01:34:25;;;;;;;;;;;;;;;25.89;59.70;101190.78;5030293;28;20026;-86
2022/07/01 01:36:51;;;;;;;6.35;3.00;;;;;;;25.85;59.67;101193.44;5043732;28;20377;-87
2022/07/01 01:39:17;;;;;;;3.75;2.80;;;;;;;25.34;59.36;101115.97;5032465;28;20036;-86
2022/07/01 01:41:43;;;;;;;3.28;2.97;;;;;;;25.66;59.64;101165.81;5023154;28;20447;-86
2022/07/01 01:44:10;;;;;;;;;;;;;;;25.88;59.90;101201.44;5052759;28;20025;-87
2022/07/01 01:46:36;;;;;;;4.57;2.85;;;;;;;25.68;59.82;101175.63;5012208;28;19916;-87
2022/07/01 01:49:02;;;;;;;;;;;;;;;25.83;59.63;101193.44;5027306;28;20037;-85
2022/07/01 01:51:28;;;;;;;4.40;3.15;;;;;;;25.55;59.39;101152.47;5032243;28;19943;-85
2022/07/01 01:53:54;;;;;;;;;;;;;;;25.83;60.16;101196.09;5034910;28;20033;-86
2022/07/01 01:56:19;;;;;;;4.68;2.70;;;;;;;25.51;59.84;101151.56;5034475;28;19908;-87
2022/07/01 01:58:45;;;;;;;;;;;;;;;25.80;59.90;101188.06;5052804;28;20032;-86
2022/07/01 02:01:11;;;;;;;4.75;3.05;;;;;;;25.50;59.85;101147.09;5017661;28;19912;-87
2022/07/01 02:03:38;;;;;;;4.43;2.97;;;;;;;25.48;59.58;101137.31;5014714;28;20462;-87
2022/07/01 02:06:05;;;;;;;3.17;2.65;;;;;;;25.49;59.56;101140.00;5029879;28;20029;-85
2022/07/01 02:08:31;;;;;;;3.05;2.80;;;;;;;25.21;59.58;101096.38;5034261;28;20108;-86
2022/07/01 02:10:58;;;;;;;3.80;2.92;;;;;;;25.40;59.78;101129.31;5052302;28;20474;-86
2022/07/01 02:13:23;;;;;;;4.00;3.10;;;;;;;25.26;59.78;101110.63;5017291;28;20483;-87
2022/07/01 02:15:51;;;;;;;;;;;;;;;25.78;60.10;101189.84;5033687;28;20029;-86
2022/07/01 02:18:17;;;;;;;3.35;2.90;;;;;;;25.68;59.82;101183.66;5051688;28;19966;-86
2022/07/01 02:20:43;;;;;;;;;;;;;;;25.78;59.79;101192.53;5034355;28;20032;-87
2022/07/01 02:23:09;;;;;;;4.72;2.90;;;;;;;25.44;59.88;101147.13;5051800;28;19944;-86
2022/07/01 02:25:35;;;;;;;3.15;2.90;;;;;;;25.14;60.11;101082.06;5051592;28;20028;-86
2022/07/01 02:28:01;;;;;;;5.07;2.90;;;;;;;25.70;59.80;101176.50;5031283;28;20408;-86
2022/07/01 02:30:27;;;;;;;;;;;;;;;25.77;59.81;101185.41;5049490;28;20440;-86
2022/07/01 02:32:52;;;;;;;3.40;2.85;;;;;;;25.71;60.03;101186.31;5017476;28;20546;-86
2022/07/01 02:35:18;;;;;;;5.03;2.90;;;;;;;25.68;59.63;101197.03;5051223;28;20045;-85
2022/07/01 02:37:44;;;;;;;;;;;;;;;25.74;59.91;101198.81;5034394;28;20017;-86
2022/07/01 02:40:11;;;;;;;3.65;2.72;;;;;;;25.66;60.03;101200.59;5024269;28;19920;-85
2022/07/01 02:42:37;;;;;;;3.65;2.85;;;;;;;25.50;60.00;101178.31;5027264;28;20033;-85
2022/07/01 02:45:06;;;;;;;;;;;;;;;25.70;60.15;101213.97;5051996;28;20035;-85
2022/07/01 02:47:36;;;;;;;4.13;2.97;;;;;;;25.39;60.17;101183.69;5051308;28;19943;-86
2022/07/01 02:50:03;;;;;;;4.43;3.05;;;;;;;25.49;59.66;101200.63;5020836;28;20484;-86
2022/07/01 02:52:42;;;;;;;3.55;2.85;;;;;;;25.67;60.20;101231.78;5041035;28;20048;-86
2022/07/01 02:55:09;;;;;;;3.90;3.15;;;;;;;25.64;60.60;101235.38;5037164;28;20091;-84
2022/07/01 02:57:35;;;;;;;4.40;3.15;;;;;;;25.54;60.01;101218.41;5055968;28;20013;-85
2022/07/01 03:00:00;;;;;;;;;;;;;;;25.68;59.74;101225.56;5051790;28;20025;-84
2022/07/01 03:02:26;;;;;;;3.83;3.10;;;;;;;25.60;60.30;101228.22;5051143;28;20372;-85
2022/07/01 03:04:53;;;;;;;5.95;2.65;;;;;;;25.34;59.92;101177.44;5032910;28;20065;-85
2022/07/01 03:07:19;;;;;;;3.47;3.10;;;;;;;25.54;59.84;101214.84;5050880;28;20029;-85
2022/07/01 03:09:45;;;;;;;3.97;3.00;;;;;;;25.49;59.97;101197.94;5030267;28;20075;-85
2022/07/01 03:12:29;;;;;;;;;;;;;;;25.61;59.75;101213.94;5051363;28;20028;-85
2022/07/01 03:14:55;;;;;;;2.65;2.45;;;;;;;25.57;59.69;101213.09;5035932;28;19995;-85
2022/07/01 03:17:21;;;;;;;4.40;2.70;;;;;;;25.48;60.28;101201.50;5051122;28;20033;-85
2022/07/01 03:19:46;;;;;;;;;;;;;;;25.62;60.14;101223.78;5031149;28;20032;-85
2022/07/01 03:22:12;;;;;;;4.70;2.95;;;;;;;25.47;59.94;101205.06;5033231;28;20015;-85
2022/07/01 03:24:38;;;;;;;3.92;2.85;;;;;;;25.35;60.00;101192.59;5033018;28;20037;-86
2022/07/01 03:27:03;;;;;;;;;;;;;;;25.63;60.09;101232.69;5030557;28;20642;-86
2022/07/01 03:29:29;;;;;;;3.72;3.00;;;;;;;25.11;59.92;101156.03;5031159;28;20388;-85
2022/07/01 03:31:55;;;;;;;;;;;;;;;25.61;59.87;101235.34;5048986;28;20032;-85
2022/07/01 03:34:21;;;;;;;3.85;2.78;;;;;;;25.26;60.15;101189.91;5032091;28;19912;-86
2022/07/01 03:36:46;;;;;;;;;;;;;;;25.61;60.13;101248.72;5029905;28;20051;-86
2022/07/01 03:39:14;;;;;;;4.15;2.53;;;;;;;25.45;60.14;101231.81;5048217;28;20015;-86
2022/07/01 03:41:40;;;;;;;2.97;2.63;;;;;;;25.53;60.09;101248.75;5039070;28;20040;-86
2022/07/01 03:44:08;;;;;;;;;;;;;;;25.60;60.36;101234.47;5033357;28;20029;-85
2022/07/01 03:46:35;;;;;;;3.60;2.90;;;;;;;25.26;59.76;101189.91;5044996;28;19919;-84
2022/07/01 03:49:02;;;;;;;7.00;2.97;;;;;;;25.26;59.97;101197.94;5041791;28;20508;-85
2022/07/01 03:51:47;;;;;;;3.75;2.50;;;;;;;25.27;60.03;101202.38;5028995;28;20025;-85
2022/07/01 03:57:18;;;;;;;4.30;2.72;;;;;;;25.22;59.93;101205.06;4950405;28;20036;-84
2022/07/01 03:59:43;;;;;;;;;;;;;;;25.56;60.19;101256.75;4954023;28;20038;-85
2022/07/01 04:02:09;;;;;;;2.83;2.58;;;;;;;25.41;60.12;101243.38;4997392;28;20003;-86
2022/07/01 04:04:34;;;;;;;;;;;;;;;25.56;60.06;101270.13;5050367;28;20104;-85
2022/07/01 04:07:01;;;;;;;5.47;3.10;;;;;;;25.47;60.27;101261.22;5032572;28;19909;-86
2022/07/01 04:09:28;;;;;;;5.20;3.00;;;;;;;25.31;60.27;101241.59;5032228;28;20028;-86
2022/07/01 04:11:54;;;;;;;3.00;2.78;;;;;;;25.39;60.63;101247.84;5032566;28;20049;-86
2022/07/01 04:14:19;;;;;;;;;;;;;;;25.57;60.43;101279.06;5033191;28;20484;-85
2022/07/01 04:16:46;;;;;;;3.22;2.80;;;;;;;25.19;60.42;101224.63;5032158;28;19909;-86
2022/07/01 04:19:12;;;;;;;;;;;;;;;25.55;60.81;101270.16;5032693;28;20029;-85
2022/07/01 04:24:25;;;;;;;3.58;3.10;;;;;;;25.36;60.74;101248.75;5050256;28;20035;-86
2022/07/01 04:26:51;;;;;;;3.75;3.05;;;;;;;25.43;60.75;101257.66;5049048;28;20038;-86
2022/07/01 04:29:18;;;;;;;4.65;3.28;;;;;;;25.50;60.81;101267.44;5030593;28;20411;-86
2022/07/01 04:31:44;;;;;;;3.70;3.30;;;;;;;25.49;60.32;101268.34;5031130;28;20094;-86
2022/07/01 04:34:09;;;;;;;;;;;;;;;25.53;60.66;101269.25;5022756;28;20037;-86
2022/07/01 04:36:35;;;;;;;4.68;2.88;;;;;;;24.99;60.68;101180.94;5029852;28;20012;-85
2022/07/01 04:39:01;;;;;;;;;;;;;;;25.51;60.49;101274.59;5046200;28;20065;-85
2022/07/01 04:44:11;;;;;;;4.05;3.22;;;;;;;25.16;60.80;101226.41;5038747;28;20184;-86
2022/07/01 04:46:36;;;;;;;;;;;;;;;25.51;60.61;101273.72;5033775;28;20524;-86
2022/07/01 04:49:03;;;;;;;3.80;3.03;;;;;;;25.17;60.97;101229.09;5053317;28;20006;-86
2022/07/01 04:51:28;;;;;;;5.10;3.35;;;;;;;25.17;60.85;101234.44;5026314;28;20095;-86
2022/07/01 04:53:54;;;;;;;;;;;;;;;25.52;61.30;101275.47;5019237;28;20488;-86
2022/07/01 04:56:20;;;;;;;6.10;3.20;;;;;;;25.52;61.24;101272.81;5018606;28;20303;-85
2022/07/01 04:58:46;;;;;;;5.50;3.53;;;;;;;25.44;61.11;101269.22;5035872;28;20017;-85
2022/07/01 05:01:12;;;;;;;3.90;2.95;;;;;;;25.38;61.56;101263.00;5018813;28;20025;-86
2022/07/01 05:03:38;;;;;;;;;;;;;;;25.51;61.49;101281.75;5026799;28;20710;-86
2022/07/01 05:06:04;;;;;;;5.43;3.78;;;;;;;25.33;62.24;101274.56;5049288;28;19909;-85
2022/07/01 05:08:30;;;;;;;;;;;;;;;25.31;62.03;101285.25;5019174;28;20427;-86
2022/07/01 05:10:55;;;;;;;8.73;4.30;;;;;;;25.26;61.48;101275.47;5051941;28;19909;-85
2022/07/01 05:13:21;;;;;;;;;;;;;;;25.38;61.56;101267.47;5052851;28;20025;-86
2022/07/01 05:15:49;;;;;;;7.22;4.20;;;;;;;25.31;61.74;101279.03;5052491;28;19917;-86
2022/07/01 05:23:55;;;;;;;4.55;4.00;;;;;;;24.87;61.82;101197.88;5052731;28;20028;-86
2022/07/01 05:26:21;;;;;;;;;;;;;;;25.37;61.79;101269.22;5033237;28;20029;-86
2022/07/01 05:28:47;;;;;;;8.07;4.00;;;;;;;25.18;61.68;101246.88;5016665;28;20396;-89
2022/07/01 05:31:12;;;;;;;;;;;;;;;25.38;61.58;101272.81;5034926;28;20115;-87
2022/07/01 05:33:39;;;;;;;7.30;3.85;;;;;;;25.00;61.89;101228.19;5026533;28;19909;-85
2022/07/01 05:36:05;;;;;;;5.32;3.85;;;;;;;24.92;61.54;101214.78;5032154;28;20413;-86
2022/07/01 05:38:31;;;;;;;5.20;3.75;;;;;;;25.33;62.12;101279.91;5033854;28;20025;-85
2022/07/01 05:40:57;;;;;;;;;;;;;;;25.39;61.71;101291.50;5019149;28;20416;-85
2022/07/01 05:43:23;;;;;;;7.32;4.05;;;;;;;25.25;61.62;101277.25;5019451;28;20095;-86
2022/07/01 05:45:48;;;;;;;;;;;;;;;25.38;62.02;101299.56;5038463;28;20488;-86
2022/07/01 05:48:14;;;;;;;4.90;3.75;;;;;;;25.09;62.03;101252.22;5049165;28;20016;-85
2022/07/01 05:50:39;;;;;;;;;;;;;;;25.36;61.90;101294.19;5026760;28;20029;-86
2022/07/01 05:53:21;;;;;;;7.03;4.03;;;;;;;24.65;62.27;101191.56;5036844;28;19909;-86
2022/07/01 05:55:55;;;;;;;4.93;3.85;;;;;;;24.62;61.77;101175.56;5045995;28;20031;-85
2022/07/01 05:58:27;;;;;;;5.50;3.63;;;;;;;24.70;62.17;101191.56;5023126;28;20029;-84
2022/07/01 06:00:52;;;;;;;4.20;3.80;;;;;;;25.16;62.39;101272.72;5044760;28;20036;-82
2022/07/01 06:03:18;;;;;;;;;;;;;;;25.37;62.19;101287.94;5051605;28;20029;-85
2022/07/01 06:05:44;;;;;;;4.65;3.47;;;;;;;25.34;61.60;101287.06;5008411;28;20306;-84
2022/07/01 06:08:09;;;;;;;;;;;;;;;25.38;61.95;101284.41;5033676;28;20055;-85
2022/07/01 06:10:35;;;;;;;5.93;3.90;;;;;;;25.12;61.97;101251.34;5048815;28;20407;-85
2022/07/01 06:13:12;;;;;;;;;;;;;;;25.39;62.07;101288.84;5032494;28;20037;-84
2022/07/01 06:15:48;;;;;;;4.25;3.85;;;;;;;24.77;62.12;101196.06;5009664;28;19969;-83
2022/07/01 06:18:13;;;;;;;4.82;3.60;;;;;;;25.27;62.13;101279.91;5030330;28;20573;-85
2022/07/01 06:20:39;;;;;;;;;;;;;;;25.38;62.05;101292.41;5032818;28;20032;-84
2022/07/01 06:23:05;;;;;;;5.75;3.90;;;;;;;25.27;62.45;101286.13;5032814;28;19977;-84
2022/07/01 06:25:30;;;;;;;;;;;;;;;25.37;62.38;101292.41;5051600;28;20032;-84
2022/07/01 06:27:56;;;;;;;6.75;3.78;;;;;;;25.32;62.63;101291.53;5032167;28;20410;-84
2022/07/01 06:30:21;;;;;;;;;;;;;;;25.32;62.50;101294.19;5051311;28;20484;-85
2022/07/01 06:32:47;;;;;;;5.30;3.88;;;;;;;25.12;62.55;101262.91;5049748;28;19913;-84
2022/07/01 06:35:13;;;;;;;;;;;;;;;25.36;62.89;101290.63;5032992;28;20198;-85
2022/07/01 06:37:43;;;;;;;5.78;4.07;;;;;;;25.19;62.27;101278.09;5032430;28;19908;-84
2022/07/01 06:40:21;;;;;;;5.65;3.80;;;;;;;25.17;62.67;101278.97;5021794;28;20086;-85
2022/07/01 06:42:49;;;;;;;4.53;3.70;;;;;;;25.01;62.76;101247.75;5014838;28;20025;-84
2022/07/01 06:45:15;;;;;;;4.18;3.80;;;;;;;25.05;62.44;101246.88;5051964;28;20079;-84
2022/07/01 06:47:40;;;;;;;;;;;;;;;25.44;62.88;101301.31;5030545;28;20569;-84
2022/07/01 06:50:07;;;;;;;4.38;3.85;;;;;;;25.39;62.80;101304.88;5045421;28;20376;-84
2022/07/01 06:52:32;;;;;;;4.28;3.88;;;;;;;25.09;62.39;101252.22;5048682;28;20408;-84
2022/07/01 06:54:58;;;;;;;;;;;;;;;25.42;62.53;101293.31;5050400;28;20024;-83
2022/07/01 06:57:24;;;;;;;6.00;4.07;;;;;;;25.08;62.64;101241.53;5051360;28;19915;-83
2022/07/01 06:59:50;;;;;;;;;;;;;;;25.33;63.01;101303.97;5031054;28;20036;-85
2022/07/01 07:02:15;;;;;;;4.68;3.97;;;;;;;25.04;62.98;101246.00;5032339;28;19963;-84
2022/07/01 07:04:41;;;;;;;;;;;;;;;25.39;63.00;101304.00;5033140;28;20507;-84
2022/07/01 07:07:06;;;;;;;4.93;3.97;;;;;;;24.91;62.72;101222.78;5050706;28;20376;-85
2022/07/01 07:09:32;;;;;;;;;;;;;;;25.31;63.36;101303.09;5016681;28;20029;-85
2022/07/01 07:11:57;;;;;;;4.32;3.85;;;;;;;25.26;62.91;101289.72;5048438;28;20306;-85
2022/07/01 07:14:23;;;;;;;;;;;;;;;25.37;62.84;101308.44;5051368;28;20025;-85
2022/07/01 07:16:51;;;;;;;3.90;3.50;;;;;;;25.18;63.07;101283.44;5046274;28;19920;-83
2022/07/01 07:19:16;;;;;;;4.50;3.80;;;;;;;25.06;62.65;101262.94;5049358;28;20112;-84
2022/07/01 07:21:42;;;;;;;;;;;;;;;25.35;62.97;101310.22;5049931;28;20068;-83
2022/07/01 07:24:08;;;;;;;4.60;3.85;;;;;;;25.05;62.56;101255.78;5046936;28;19930;-83
2022/07/01 07:26:33;;;;;;;;;;;;;;;25.36;63.13;101304.88;5048303;28;20459;-82
2022/07/01 07:28:59;;;;;;;4.60;4.05;;;;;;;25.34;62.78;101311.13;5047366;28;20311;-83
2022/07/01 07:31:24;;;;;;;;;;;;;;;25.35;62.97;101308.44;5049965;28;20036;-83
2022/07/01 07:33:50;;;;;;;6.80;3.95;;;;;;;25.36;63.17;101312.03;5047552;28;20438;-83
2022/07/01 07:36:15;;;;;;;;;;;;;;;25.41;62.60;101314.69;5049782;28;20418;-82
2022/07/01 07:38:41;;;;;;;7.22;4.25;;;;;;;25.42;62.38;101320.06;5049112;28;19920;-81
2022/07/01 07:41:06;;;;;;;;;;;;;;;25.42;62.74;101316.47;5050841;28;20090;-82
2022/07/01 07:43:32;;;;;;;5.03;3.58;;;;;;;25.31;62.42;101309.31;5031572;28;20445;-82
2022/07/01 07:45:57;;;;;;;;;;;;;;;25.44;62.78;101320.03;5050704;28;20028;-82
2022/07/01 07:48:23;;;;;;;3.90;3.60;;;;;;;25.43;62.37;101319.16;5050182;28;20516;-83
2022/07/01 07:50:48;;;;;;;6.78;4.28;;;;;;;25.26;62.62;101292.38;5048538;28;20079;-83
2022/07/01 07:53:14;;;;;;;;;;;;;;;25.46;62.49;101316.47;5056440;28;20514;-84
2022/07/01 07:55:40;;;;;;;4.20;3.80;;;;;;;25.43;62.54;101329.84;5031384;28;20402;-83
2022/07/01 07:58:06;;;;;;;;;;;;;;;25.48;62.62;101317.38;5031409;28;20028;-83
2022/07/01 08:00:31;;;;;;;5.28;3.80;;;;;;;25.46;62.65;101319.16;5031914;28;19909;-83
2022/07/01 08:02:57;;;;;;;;;;;;;;;25.48;62.62;101322.72;5047877;28;20466;-83
2022/07/01 08:05:23;;;;;;;4.53;4.05;;;;;;;25.39;63.16;101314.69;5052441;28;20032;-83
2022/07/01 08:07:48;;;;;;;;;;;;;;;25.47;62.74;101323.63;5031940;28;20048;-83
2022/07/01 08:10:14;;;;;;;5.15;3.83;;;;;;;25.09;62.32;101259.38;5015219;28;19917;-81
2022/07/01 08:12:42;;;;;;;;;;;;;;;25.50;62.62;101323.59;5049486;28;20021;-82
2022/07/01 08:15:09;;;;;;;5.15;4.13;;;;;;;25.23;62.66;101275.44;5052511;28;20014;-83
2022/07/01 08:17:34;;;;;;;4.55;3.60;;;;;;;25.48;62.45;101324.50;5035666;28;20133;-82
2022/07/01 08:20:00;;;;;;;;;;;;;;;25.49;62.84;101324.50;5053333;28;20464;-82
2022/07/01 08:22:26;;;;;;;4.40;4.00;;;;;;;25.08;63.26;101258.47;5051777;28;19916;-83
2022/07/01 08:24:51;;;;;;;;;;;;;;;25.47;62.64;101328.97;5047630;28;20397;-83
2022/07/01 08:27:17;;;;;;;4.47;3.65;;;;;;;25.34;62.77;101311.13;5053575;28;19913;-83
2022/07/01 08:29:42;;;;;;;;;;;;;;;25.45;62.54;101330.75;5053067;28;20029;-83
2022/07/01 08:32:08;;;;;;;5.28;4.00;;;;;;;25.45;63.04;101327.19;5035363;28;19959;-83
2022/07/01 08:34:35;;;;;;;;;;;;;;;25.50;62.67;101328.06;5054412;28;20389;-83
2022/07/01 08:37:04;;;;;;;4.20;3.80;;;;;;;25.46;62.42;101327.16;5035295;28;19939;-83
2022/07/01 08:39:29;;;;;;;4.18;3.70;;;;;;;25.48;62.39;101333.41;5035802;28;20070;-83
2022/07/01 08:41:55;;;;;;;;;;;;;;;25.51;62.83;101336.09;5053985;28;20033;-84
2022/07/01 08:44:21;;;;;;;4.30;3.90;;;;;;;25.49;61.98;101343.22;5051313;28;19912;-84
2022/07/01 08:46:46;;;;;;;;;;;;;;;25.51;62.16;101343.25;5053313;28;20450;-84
2022/07/01 08:49:17;;;;;;;4.22;3.83;;;;;;;25.44;62.16;101328.06;5035485;28;19916;-84
2022/07/01 08:51:45;;;;;;;4.20;3.72;;;;;;;25.42;62.65;101321.81;5019660;28;20039;-84
2022/07/01 08:54:20;;;;;;;6.25;4.00;;;;;;;25.09;62.40;101278.06;5034431;28;20480;-84
2022/07/01 08:56:46;;;;;;;4.82;3.80;;;;;;;25.23;62.79;101302.16;5035505;28;20031;-84
2022/07/01 08:59:13;;;;;;;;;;;;;;;25.55;62.58;101350.38;5033224;28;20029;-84
2022/07/01 09:01:39;;;;;;;4.75;3.70;;;;;;;25.17;62.48;101279.88;5031888;28;19935;-83
2022/07/01 09:04:17;;;;;;;4.18;3.67;;;;;;;25.54;62.64;101341.44;5047543;28;20033;-83
2022/07/01 09:06:44;;;;;;;3.63;3.28;;;;;;;25.00;62.82;101254.91;5051003;28;20496;-83
2022/07/01 09:09:20;;;;;;;4.40;4.00;;;;;;;25.45;62.87;101332.53;5017421;28;20045;-83
2022/07/01 09:11:53;;;;;;;4.07;3.67;;;;;;;25.47;62.86;101337.00;5012971;28;20481;-83
2022/07/01 09:14:25;;;;;;;6.10;3.58;;;;;;;25.18;62.15;101278.09;5043770;28;20048;-83
2022/07/01 09:17:18;;;;;;;4.32;3.63;;;;;;;25.14;62.61;101274.50;5020843;28;20036;-83
2022/07/01 09:19:49;;;;;;;4.07;3.67;;;;;;;25.55;62.17;101347.72;5027263;28;20037;-84
2022/07/01 09:22:14;;;;;;;4.53;3.38;;;;;;;25.37;62.48;101309.31;5052198;28;20472;-84
2022/07/01 09:24:42;;;;;;;;;;;;;;;25.60;62.94;101340.56;5052924;28;20093;-84
2022/07/01 09:27:11;;;;;;;3.70;3.40;;;;;;;25.51;62.75;101330.75;5034205;28;19908;-83
2022/07/01 09:29:39;;;;;;;5.03;3.72;;;;;;;25.25;63.18;101295.06;5031623;28;20036;-84
2022/07/01 09:32:07;;;;;;;4.78;3.60;;;;;;;25.22;63.04;101285.25;5031273;28;20123;-83
2022/07/01 09:34:35;;;;;;;4.63;3.85;;;;;;;25.50;62.68;101328.97;5010118;28;20036;-83
2022/07/01 09:37:01;;;;;;;4.57;3.78;;;;;;;25.33;63.85;101291.50;5051771;28;20049;-83
2022/07/01 09:39:27;;;;;;;4.10;3.70;;;;;;;25.55;64.17;101335.22;5031476;28;20523;-83
2022/07/01 09:41:55;;;;;;;;;;;;;;;25.62;63.27;101333.44;5042497;28;20104;-83
2022/07/01 09:44:21;;;;;;;4.28;3.88;;;;;;;25.16;63.08;101258.47;5017848;28;20003;-83
2022/07/01 09:46:53;;;;;;;;;;;;;;;25.60;63.68;101337.91;5016667;28;20610;-83
2022/07/01 09:49:19;;;;;;;4.72;3.83;;;;;;;25.50;63.22;101325.41;5051521;28;19917;-83
2022/07/01 09:51:44;;;;;;;;;;;;;;;25.65;63.34;101327.19;5051258;28;20031;-84
2022/07/01 09:54:12;;;;;;;4.72;3.70;;;;;;;25.24;63.63;101270.09;5051503;28;19912;-82
2022/07/01 09:56:38;;;;;;;4.32;3.90;;;;;;;25.57;63.00;101322.75;5052188;28;20024;-83
2022/07/01 09:59:03;;;;;;;;;;;;;;;25.60;63.38;101330.75;5026553;28;20127;-84
2022/07/01 10:01:31;;;;;;;4.82;3.90;;;;;;;25.59;63.13;101331.66;5017779;28;19978;-83
2022/07/01 10:03:58;;;;;;;4.18;3.78;;;;;;;25.58;63.65;101329.84;5048614;28;20036;-82
2022/07/01 10:06:47;;;;;;;4.75;4.28;;;;;;;25.57;63.58;101336.13;5029753;28;20535;-83
2022/07/01 10:09:19;;;;;;;4.10;3.78;;;;;;;25.59;63.70;101338.81;5052083;28;20067;-88
2022/07/01 10:12:29;;;;;;;4.10;3.70;;;;;;;25.58;63.88;101343.25;5040939;28;20029;-85
2022/07/01 10:14:57;;;;;;;4.78;3.65;;;;;;;25.50;64.50;101317.38;5029653;28;20068;-83
2022/07/01 10:17:49;;;;;;;4.55;3.80;;;;;;;25.52;63.57;101319.16;5025062;28;20111;-85
2022/07/01 10:20:20;;;;;;;4.85;4.00;;;;;;;25.46;63.65;101305.78;5031811;28;20099;-84
2022/07/01 10:22:46;;;;;;;4.47;4.00;;;;;;;25.62;63.45;101341.47;5033437;28;20017;-85
2022/07/01 10:25:41;;;;;;;4.28;3.42;;;;;;;25.60;63.71;101344.13;5029524;28;20098;-91
2022/07/01 10:28:25;;;;;;;4.75;3.75;;;;;;;25.56;64.14;101346.81;5031234;28;20103;-84
2022/07/01 10:30:59;;;;;;;4.10;3.70;;;;;;;25.47;63.90;101315.59;5046992;28;20036;-84
2022/07/01 10:33:42;;;;;;;3.97;3.67;;;;;;;25.62;64.09;101344.13;5049689;28;20025;-85
2022/07/01 10:36:11;;;;;;;4.97;3.83;;;;;;;25.66;64.35;101340.59;5031940;28;20102;-84
2022/07/01 10:39:00;;;;;;;4.93;3.67;;;;;;;25.62;64.23;101338.78;5049179;28;20036;-84
2022/07/01 10:41:29;;;;;;;4.82;4.00;;;;;;;25.61;64.12;101337.00;5043068;28;20041;-83
2022/07/01 10:43:55;;;;;;;5.78;4.10;;;;;;;25.50;63.70;101315.59;5051564;28;20033;-83
2022/07/01 10:46:45;;;;;;;4.57;4.18;;;;;;;25.64;64.08;101338.81;5049601;28;20029;-81
2022/07/01 10:49:16;;;;;;;4.82;3.83;;;;;;;25.39;63.81;101294.19;5054652;28;20041;-81
2022/07/01 10:51:52;;;;;;;4.20;3.80;;;;;;;25.59;64.52;101320.97;5026439;28;20175;-81
2022/07/01 10:54:36;;;;;;;4.45;4.05;;;;;;;25.73;64.33;101330.78;5050723;28;20027;-82
2022/07/01 10:57:18;;;;;;;6.07;3.88;;;;;;;25.77;63.92;101327.22;5050302;28;20024;-85
2022/07/01 10:59:51;;;;;;;4.22;3.83;;;;;;;25.75;64.26;101329.00;5049582;28;20021;-82
2022/07/01 11:02:25;;;;;;;4.72;4.18;;;;;;;25.71;63.92;101322.75;5032925;28;20028;-81
2022/07/01 11:04:55;;;;;;;5.78;3.88;;;;;;;25.59;64.18;101304.91;5050165;28;20084;-81
2022/07/01 11:07:23;;;;;;;6.32;4.65;;;;;;;25.43;63.92;101276.38;5032778;28;20043;-81
2022/07/01 11:09:48;;;;;;;4.55;3.95;;;;;;;25.67;63.62;101312.03;5049736;28;20638;-82
2022/07/01 11:12:17;;;;;;;;;;;;;;;25.72;63.78;101323.66;5050241;28;20028;-82
2022/07/01 11:14:43;;;;;;;4.22;3.83;;;;;;;25.55;63.97;101288.88;5050141;28;19909;-81
2022/07/01 11:17:09;;;;;;;6.05;4.15;;;;;;;25.74;64.02;101324.53;5049706;28;20032;-81
2022/07/01 11:19:36;;;;;;;5.35;4.20;;;;;;;25.73;63.85;101320.06;5049354;28;20483;-82
2022/07/01 11:22:02;;;;;;;4.57;4.18;;;;;;;25.65;64.29;101303.13;5032094;28;20025;-81
2022/07/01 11:24:28;;;;;;;5.57;3.88;;;;;;;25.49;64.04;101270.16;5049518;28;20508;-82
2022/07/01 11:27:00;;;;;;;;;;;;;;;25.77;64.22;101311.16;5047988;28;20025;-82
2022/07/01 11:29:40;;;;;;;4.68;4.22;;;;;;;25.73;64.25;101309.38;5049453;28;19959;-83
2022/07/01 11:32:05;;;;;;;5.28;4.13;;;;;;;25.37;63.64;101246.94;5014806;28;20033;-82
2022/07/01 11:34:31;;;;;;;;;;;;;;;25.77;63.93;101306.69;5033734;28;20024;-82
2022/07/01 11:39:43;;;;;;;4.22;3.80;;;;;;;25.65;63.81;101287.94;5044502;28;20532;-82
2022/07/01 11:42:12;;;;;;;4.70;4.22;;;;;;;25.44;63.72;101251.41;5053954;28;20033;-83
2022/07/01 11:44:40;;;;;;;4.63;4.20;;;;;;;25.76;63.86;101304.00;5010369;28;20329;-82
2022/07/01 11:47:08;;;;;;;5.68;3.95;;;;;;;25.19;63.80;101197.91;5050203;28;20090;-82
2022/07/01 11:49:43;;;;;;;4.60;4.20;;;;;;;25.55;64.01;101263.00;5049689;28;20416;-80
2022/07/01 11:52:10;;;;;;;5.43;4.10;;;;;;;25.25;64.43;101215.78;5038536;28;20033;-83
2022/07/01 11:54:39;;;;;;;4.90;3.88;;;;;;;25.72;64.01;101289.75;5047253;28;20709;-82
2022/07/01 11:57:19;;;;;;;5.75;4.07;;;;;;;25.38;64.23;101222.00;5052115;28;20140;-82
2022/07/01 11:59:46;;;;;;;4.63;3.92;;;;;;;25.43;64.08;101233.59;5035651;28;20120;-83
2022/07/01 12:02:14;;;;;;;6.05;4.18;;;;;;;25.44;64.11;101234.47;5027774;28;20064;-82
2022/07/01 12:04:41;;;;;;;5.90;4.35;;;;;;;25.38;64.34;101217.56;5036557;28;20029;-82